Bowlus, Minnesota
Current Conditions -  °F | °C
As of 8:37 PM on Friday 24 Oct 2014 (Local Time) from KLXL Reporting Station
Clear Clear  
Wind Chill: 52°   Ceiling: Unl
Heat Index: 52°   Visibility: 10mi
Dew Point: 43°   Wind: 0mph
Humidity: 71%   Direction: NA
Pressure: 29.83"   Gusts: NA
Location:  45.82°N, 94.41°W
Report Text: KLXL 250137Z AUTO 00000KT 10SM CLR 11/06 A2983 RMK AO2
Loading
Personal Weather Stations






























Interactive Weather Map
Tropical Storm Tracking
New forecast layout! Learn more

10-Day Weather Forecast

Advertisements
Track Severe Weather on mobile